Time;durP1;ratioP1;P1;durP2;ratioP2;P2;SDS_P1;SDS_P2;PMS_P1;PMS_P2;Temp;Humidity;BMP_temperature;BMP_pressure;BME280_temperature;BME280_humidity;BME280_pressure;Samples;Min_cycle;Max_cycle;Signal;HPM_P1;HPM_P2
2023/04/16 00:00:11;;;;;;;13.55;4.28;;;;;;;;;;4997218;28;25083;-72
2023/04/16 00:02:37;;;;;;;12.55;4.38;;;;;;;;;;5024695;28;25094;-73
2023/04/16 00:05:03;;;;;;;11.52;4.60;;;;;;;;;;5006437;28;25065;-71
2023/04/16 00:07:29;;;;;;;16.55;4.53;;;;;;;;;;5012860;28;25049;-76
2023/04/16 00:09:55;;;;;;;11.23;4.20;;;;;;;;;;5019527;28;25053;-73
2023/04/16 00:12:21;;;;;;;14.45;4.47;;;;;;;;;;5023643;28;25101;-75
2023/04/16 00:14:48;;;;;;;24.90;4.68;;;;;;;;;;5025688;28;25132;-72
2023/04/16 00:17:14;;;;;;;19.48;5.38;;;;;;;;;;5011540;28;25062;-73
2023/04/16 00:19:40;;;;;;;13.00;4.00;;;;;;;;;;5028994;28;25129;-73
2023/04/16 00:22:06;;;;;;;19.02;5.07;;;;;;;;;;5014890;28;25108;-74
2023/04/16 00:24:32;;;;;;;22.30;5.07;;;;;;;;;;5021322;28;25091;-74
2023/04/16 00:26:58;;;;;;;21.35;5.95;;;;;;;;;;5020200;28;25146;-73
2023/04/16 00:29:24;;;;;;;22.92;5.68;;;;;;;;;;5016628;28;25093;-74
2023/04/16 00:31:50;;;;;;;18.58;6.22;;;;;;;;;;5020388;28;25123;-74
2023/04/16 00:34:16;;;;;;;18.42;7.13;;;;;;;;;;5015388;28;25075;-76
2023/04/16 00:36:42;;;;;;;24.05;6.60;;;;;;;;;;5013404;28;25063;-77
2023/04/16 00:39:08;;;;;;;18.13;6.88;;;;;;;;;;5033395;28;25108;-77
2023/04/16 00:41:34;;;;;;;13.88;5.22;;;;;;;;;;5035758;28;25071;-75
2023/04/16 00:44:00;;;;;;;14.52;5.43;;;;;;;;;;5041708;28;25053;-73
2023/04/16 00:46:26;;;;;;;22.80;6.13;;;;;;;;;;5032841;28;25070;-74
2023/04/16 00:48:53;;;;;;;27.30;6.05;;;;;;;;;;5033678;28;25180;-72
2023/04/16 00:51:20;;;;;;;22.42;5.18;;;;;;;;;;5011207;28;25063;-75
2023/04/16 00:53:46;;;;;;;12.77;5.57;;;;;;;;;;5017656;28;25064;-72
2023/04/16 00:56:12;;;;;;;15.30;5.07;;;;;;;;;;5036382;28;25069;-73
2023/04/16 00:58:39;;;;;;;11.52;5.32;;;;;;;;;;5039237;28;25082;-76
2023/04/16 01:01:05;;;;;;;12.05;4.82;;;;;;;;;;5035493;28;25115;-73
2023/04/16 01:03:38;;;;;;;13.27;4.55;;;;;;;;;;5023873;28;25070;-76
2023/04/16 01:06:04;;;;;;;10.18;3.95;;;;;;;;;;5025761;28;25071;-75
2023/04/16 01:08:30;;;;;;;13.57;4.55;;;;;;;;;;5027566;28;25075;-75
2023/04/16 01:10:56;;;;;;;10.80;4.30;;;;;;;;;;5045554;28;25059;-75
2023/04/16 01:13:22;;;;;;;16.02;4.57;;;;;;;;;;5035044;28;25081;-76
2023/04/16 01:15:48;;;;;;;11.90;4.60;;;;;;;;;;5034964;28;25050;-73
2023/04/16 01:18:15;;;;;;;16.48;5.68;;;;;;;;;;5037121;28;25080;-76
2023/04/16 01:20:41;;;;;;;10.93;5.43;;;;;;;;;;5039686;28;25084;-74
2023/04/16 01:23:07;;;;;;;13.73;4.32;;;;;;;;;;5041621;28;25066;-75
2023/04/16 01:25:33;;;;;;;12.52;3.90;;;;;;;;;;5035938;28;25070;-76
2023/04/16 01:27:59;;;;;;;23.48;5.03;;;;;;;;;;5014348;28;25048;-77
2023/04/16 01:30:25;;;;;;;14.77;4.57;;;;;;;;;;5019364;28;25096;-76
2023/04/16 01:32:51;;;;;;;10.48;3.85;;;;;;;;;;5014363;28;25092;-76
2023/04/16 01:35:17;;;;;;;18.73;4.43;;;;;;;;;;5022704;28;25084;-73
2023/04/16 01:37:43;;;;;;;18.38;3.78;;;;;;;;;;5012627;28;25045;-74
2023/04/16 01:40:09;;;;;;;10.63;3.40;;;;;;;;;;5027516;28;25067;-74
2023/04/16 01:42:35;;;;;;;8.57;3.70;;;;;;;;;;5011041;28;25106;-74
2023/04/16 01:45:01;;;;;;;16.65;5.78;;;;;;;;;;5035256;28;25071;-74
2023/04/16 01:47:27;;;;;;;16.23;3.80;;;;;;;;;;5040716;28;25090;-72
2023/04/16 01:49:53;;;;;;;12.32;3.67;;;;;;;;;;5037986;28;25078;-74
2023/04/16 01:52:20;;;;;;;18.85;4.38;;;;;;;;;;5022738;28;25076;-76
2023/04/16 01:54:45;;;;;;;17.05;3.92;;;;;;;;;;5026673;28;25083;-75
2023/04/16 01:57:11;;;;;;;8.43;4.10;;;;;;;;;;5017611;28;25074;-73
2023/04/16 01:59:37;;;;;;;16.33;4.20;;;;;;;;;;5031826;28;25067;-76
2023/04/16 02:02:06;;;;;;;15.25;4.50;;;;;;;;;;5024689;28;25065;-73
2023/04/16 02:04:32;;;;;;;12.20;4.50;;;;;;;;;;5016359;28;25071;-72
2023/04/16 02:06:58;;;;;;;11.70;5.13;;;;;;;;;;5032329;28;25100;-74
2023/04/16 02:09:24;;;;;;;16.02;4.70;;;;;;;;;;5021580;28;25102;-75
2023/04/16 02:11:50;;;;;;;17.02;5.25;;;;;;;;;;5022817;28;25076;-73
2023/04/16 02:14:16;;;;;;;14.77;5.05;;;;;;;;;;5033231;28;25064;-73
2023/04/16 02:16:42;;;;;;;20.45;5.10;;;;;;;;;;5027945;28;25083;-74
2023/04/16 02:19:08;;;;;;;12.57;5.82;;;;;;;;;;5033164;28;25068;-73
2023/04/16 02:21:34;;;;;;;14.35;6.38;;;;;;;;;;5030590;28;25079;-74
2023/04/16 02:24:00;;;;;;;18.70;6.47;;;;;;;;;;5012057;28;25056;-74
2023/04/16 02:26:28;;;;;;;11.90;5.13;;;;;;;;;;5010832;28;25051;-73
2023/04/16 02:28:54;;;;;;;17.23;6.43;;;;;;;;;;5016358;28;25047;-72
2023/04/16 02:31:21;;;;;;;14.27;5.47;;;;;;;;;;5028861;28;25088;-78
2023/04/16 02:33:47;;;;;;;19.35;6.32;;;;;;;;;;5028774;28;25102;-75
2023/04/16 02:36:13;;;;;;;16.85;5.10;;;;;;;;;;5037822;28;25084;-77
2023/04/16 02:38:39;;;;;;;28.85;6.00;;;;;;;;;;5026289;28;25075;-78
2023/04/16 02:41:05;;;;;;;16.45;5.65;;;;;;;;;;5014560;28;25095;-73
2023/04/16 02:43:31;;;;;;;15.43;6.03;;;;;;;;;;5033152;28;25062;-76
2023/04/16 02:45:58;;;;;;;20.98;7.18;;;;;;;;;;5032823;28;25117;-73
2023/04/16 02:48:24;;;;;;;19.83;6.72;;;;;;;;;;5031549;28;25047;-75
2023/04/16 02:50:50;;;;;;;19.10;6.80;;;;;;;;;;5041500;28;25076;-74
2023/04/16 02:53:16;;;;;;;22.98;6.03;;;;;;;;;;5032370;28;25052;-76
2023/04/16 02:55:46;;;;;;;16.98;6.35;;;;;;;;;;5037518;28;25106;-74
2023/04/16 02:58:12;;;;;;;20.05;5.50;;;;;;;;;;5024976;28;25055;-76
2023/04/16 03:00:38;;;;;;;23.13;6.65;;;;;;;;;;5019354;28;25070;-74
2023/04/16 03:03:04;;;;;;;13.70;5.40;;;;;;;;;;5029849;28;25069;-72
2023/04/16 03:05:30;;;;;;;15.48;5.07;;;;;;;;;;5031604;28;25086;-76
2023/04/16 03:07:56;;;;;;;17.55;5.97;;;;;;;;;;5037890;28;25054;-73
2023/04/16 03:10:23;;;;;;;18.95;6.07;;;;;;;;;;5039253;28;25046;-75
2023/04/16 03:12:49;;;;;;;14.70;5.30;;;;;;;;;;5036379;28;25061;-75
2023/04/16 03:15:15;;;;;;;24.20;7.18;;;;;;;;;;5037068;28;25102;-73
2023/04/16 03:17:41;;;;;;;20.13;6.53;;;;;;;;;;5030329;28;25066;-74
2023/04/16 03:20:08;;;;;;;18.50;6.22;;;;;;;;;;5030114;28;25175;-76
2023/04/16 03:22:34;;;;;;;18.23;5.95;;;;;;;;;;5031968;28;25066;-78
2023/04/16 03:25:00;;;;;;;14.80;6.22;;;;;;;;;;5036680;28;25079;-75
2023/04/16 03:27:26;;;;;;;19.10;5.82;;;;;;;;;;5041892;28;25073;-76
2023/04/16 03:29:52;;;;;;;12.18;6.15;;;;;;;;;;5033333;28;25087;-75
2023/04/16 03:32:18;;;;;;;15.82;5.45;;;;;;;;;;5032209;28;25090;-79
2023/04/16 03:34:44;;;;;;;11.10;6.00;;;;;;;;;;5037020;28;25066;-74
2023/04/16 03:37:10;;;;;;;20.65;5.82;;;;;;;;;;5038699;28;25070;-73
2023/04/16 03:39:36;;;;;;;12.88;5.53;;;;;;;;;;5031164;28;25047;-76
2023/04/16 03:42:02;;;;;;;18.10;5.85;;;;;;;;;;5037753;28;25088;-77
2023/04/16 03:44:29;;;;;;;20.88;6.10;;;;;;;;;;5019382;28;25082;-76
2023/04/16 03:46:55;;;;;;;22.40;6.82;;;;;;;;;;5038945;28;25079;-73
2023/04/16 03:49:21;;;;;;;20.48;6.28;;;;;;;;;;5022875;28;25159;-74
2023/04/16 03:51:47;;;;;;;12.73;5.00;;;;;;;;;;5029519;28;25053;-72
2023/04/16 03:54:13;;;;;;;19.25;6.25;;;;;;;;;;5031781;28;25070;-71
2023/04/16 03:56:42;;;;;;;16.67;6.05;;;;;;;;;;5008382;28;25093;-71
2023/04/16 03:59:08;;;;;;;15.40;5.60;;;;;;;;;;5014894;28;25057;-73
2023/04/16 04:01:34;;;;;;;17.58;6.07;;;;;;;;;;5017062;28;25122;-73
2023/04/16 04:04:00;;;;;;;18.40;5.97;;;;;;;;;;5027343;28;25074;-73
2023/04/16 04:06:26;;;;;;;19.67;5.40;;;;;;;;;;5039709;28;25053;-73
2023/04/16 04:08:53;;;;;;;30.55;6.13;;;;;;;;;;5034805;28;25070;-73
2023/04/16 04:11:19;;;;;;;16.98;5.20;;;;;;;;;;5031785;28;25068;-76
2023/04/16 04:13:45;;;;;;;10.10;5.80;;;;;;;;;;5027715;28;25105;-72
2023/04/16 04:16:11;;;;;;;18.75;5.32;;;;;;;;;;5030525;28;25053;-73
2023/04/16 04:18:37;;;;;;;21.67;5.90;;;;;;;;;;5023038;28;25151;-72
2023/04/16 04:21:09;;;;;;;28.77;6.68;;;;;;;;;;5023272;28;25063;-73
2023/04/16 04:23:36;;;;;;;19.90;6.43;;;;;;;;;;5019949;28;25136;-73
2023/04/16 04:26:02;;;;;;;11.13;6.03;;;;;;;;;;5017165;28;25055;-74
2023/04/16 04:28:28;;;;;;;16.08;5.53;;;;;;;;;;5019975;28;25111;-73
2023/04/16 04:30:54;;;;;;;17.17;5.65;;;;;;;;;;5006320;28;25060;-72
2023/04/16 04:33:20;;;;;;;15.07;5.38;;;;;;;;;;5023087;28;25060;-75
2023/04/16 04:35:46;;;;;;;21.48;5.82;;;;;;;;;;5030993;28;25075;-74
2023/04/16 04:38:12;;;;;;;21.85;7.50;;;;;;;;;;5016992;28;25067;-73
2023/04/16 04:40:38;;;;;;;14.93;6.05;;;;;;;;;;5017297;28;25093;-74
2023/04/16 04:43:04;;;;;;;15.07;5.75;;;;;;;;;;5014389;28;25122;-75
2023/04/16 04:45:30;;;;;;;22.58;5.68;;;;;;;;;;5038418;28;25048;-73
2023/04/16 04:47:56;;;;;;;10.95;6.15;;;;;;;;;;5020334;28;25124;-75
2023/04/16 04:50:22;;;;;;;20.60;6.93;;;;;;;;;;5017884;28;25082;-75
2023/04/16 04:52:48;;;;;;;14.02;5.18;;;;;;;;;;5010627;28;25075;-76
2023/04/16 04:55:14;;;;;;;12.23;5.15;;;;;;;;;;5034283;28;25091;-76
2023/04/16 04:57:41;;;;;;;16.73;5.72;;;;;;;;;;5022454;28;25083;-78
2023/04/16 05:00:07;;;;;;;13.43;4.38;;;;;;;;;;4998092;28;25098;-72
2023/04/16 05:02:33;;;;;;;10.55;4.30;;;;;;;;;;5032293;28;25058;-75
2023/04/16 05:04:59;;;;;;;15.35;4.47;;;;;;;;;;5028038;28;25071;-74
2023/04/16 05:07:25;;;;;;;15.30;5.60;;;;;;;;;;5026620;28;25090;-73
2023/04/16 05:09:51;;;;;;;11.35;5.00;;;;;;;;;;5025580;28;25075;-73
2023/04/16 05:12:17;;;;;;;15.23;5.00;;;;;;;;;;5022335;28;25067;-71
2023/04/16 05:14:43;;;;;;;9.15;5.03;;;;;;;;;;5024139;28;25077;-75
2023/04/16 05:17:09;;;;;;;11.00;5.20;;;;;;;;;;5029597;28;25076;-74
2023/04/16 05:19:35;;;;;;;15.77;5.45;;;;;;;;;;5027131;28;25057;-73
2023/04/16 05:22:02;;;;;;;21.38;6.07;;;;;;;;;;5015747;28;25065;-74
2023/04/16 05:24:28;;;;;;;19.08;8.05;;;;;;;;;;5019712;28;25068;-73
2023/04/16 05:26:55;;;;;;;16.35;6.90;;;;;;;;;;5031165;28;25092;-74
2023/04/16 05:29:22;;;;;;;18.80;7.95;;;;;;;;;;5022862;28;25071;-72
2023/04/16 05:31:48;;;;;;;19.63;7.90;;;;;;;;;;5014042;28;25083;-73
2023/04/16 05:34:13;;;;;;;22.50;8.90;;;;;;;;;;5013012;28;25108;-74
2023/04/16 05:36:39;;;;;;;20.30;7.43;;;;;;;;;;5020360;28;25088;-72
2023/04/16 05:39:06;;;;;;;20.33;8.00;;;;;;;;;;5022159;28;25081;-72
2023/04/16 05:41:32;;;;;;;19.02;7.80;;;;;;;;;;5027441;28;25059;-73
2023/04/16 05:43:58;;;;;;;20.50;9.20;;;;;;;;;;5017132;28;25060;-76
2023/04/16 05:46:24;;;;;;;22.60;8.68;;;;;;;;;;5035781;28;25076;-74
2023/04/16 05:48:50;;;;;;;15.45;9.15;;;;;;;;;;5039938;28;25056;-73
2023/04/16 05:51:17;;;;;;;21.75;9.00;;;;;;;;;;5043717;28;25164;-75
2023/04/16 05:53:42;;;;;;;17.08;9.60;;;;;;;;;;5044885;28;25057;-74
2023/04/16 05:56:08;;;;;;;21.27;8.90;;;;;;;;;;5041565;28;25079;-73
2023/04/16 05:58:34;;;;;;;21.17;10.07;;;;;;;;;;5049361;28;25099;-74
2023/04/16 06:01:00;;;;;;;23.08;10.88;;;;;;;;;;5040731;28;25073;-76
2023/04/16 06:03:27;;;;;;;28.88;9.88;;;;;;;;;;5037390;28;25114;-75
2023/04/16 06:05:53;;;;;;;26.48;10.38;;;;;;;;;;5028206;28;25081;-76
2023/04/16 06:08:19;;;;;;;29.17;10.73;;;;;;;;;;5028631;28;25059;-72
2023/04/16 06:10:46;;;;;;;21.80;10.73;;;;;;;;;;5021029;28;25095;-74
2023/04/16 06:13:12;;;;;;;21.25;9.35;;;;;;;;;;5045263;28;25089;-77
2023/04/16 06:15:38;;;;;;;29.88;11.25;;;;;;;;;;5015031;28;25137;-72
2023/04/16 06:18:04;;;;;;;26.45;10.27;;;;;;;;;;5015970;28;25115;-72
2023/04/16 06:20:30;;;;;;;26.20;10.57;;;;;;;;;;5025017;28;25090;-74
2023/04/16 06:22:56;;;;;;;33.47;10.02;;;;;;;;;;5023850;28;25072;-75
2023/04/16 06:25:22;;;;;;;26.48;11.20;;;;;;;;;;5015945;28;25083;-75
2023/04/16 06:27:48;;;;;;;21.25;9.70;;;;;;;;;;5015692;28;25058;-74
2023/04/16 06:30:15;;;;;;;24.67;10.38;;;;;;;;;;5012542;28;25069;-73
2023/04/16 06:32:45;;;;;;;26.33;11.63;;;;;;;;;;5009536;28;25062;-73
2023/04/16 06:35:11;;;;;;;25.10;10.10;;;;;;;;;;5016023;28;25064;-73
2023/04/16 06:37:37;;;;;;;22.38;11.50;;;;;;;;;;5014753;28;25057;-73
2023/04/16 06:40:03;;;;;;;27.98;11.90;;;;;;;;;;5029960;28;25148;-70
2023/04/16 06:42:29;;;;;;;24.42;10.68;;;;;;;;;;5010959;28;25075;-71
2023/04/16 06:44:55;;;;;;;22.92;11.18;;;;;;;;;;4985360;28;25058;-71
2023/04/16 06:47:21;;;;;;;26.95;11.57;;;;;;;;;;5013085;28;25157;-74
2023/04/16 06:49:47;;;;;;;23.92;11.13;;;;;;;;;;5024984;28;25056;-74
2023/04/16 06:52:13;;;;;;;30.90;11.02;;;;;;;;;;5023935;28;25103;-74
2023/04/16 06:54:39;;;;;;;25.35;10.98;;;;;;;;;;5010956;28;25077;-69
2023/04/16 06:57:05;;;;;;;25.60;12.00;;;;;;;;;;5003988;28;25078;-72
2023/04/16 06:59:31;;;;;;;25.60;11.93;;;;;;;;;;5017480;28;25104;-73
2023/04/16 07:01:57;;;;;;;23.00;11.07;;;;;;;;;;5015478;28;25069;-73
2023/04/16 07:04:23;;;;;;;24.80;12.65;;;;;;;;;;5011575;28;25123;-73
2023/04/16 07:06:49;;;;;;;24.42;11.40;;;;;;;;;;5017066;28;25123;-74
2023/04/16 07:09:16;;;;;;;22.77;9.90;;;;;;;;;;5008340;28;25198;-72
2023/04/16 07:11:42;;;;;;;22.40;10.77;;;;;;;;;;4986880;28;25090;-72
2023/04/16 07:14:08;;;;;;;26.63;11.32;;;;;;;;;;5011356;28;25052;-73
2023/04/16 07:16:36;;;;;;;24.20;12.07;;;;;;;;;;5004796;28;25072;-73
2023/04/16 07:19:02;;;;;;;33.38;13.30;;;;;;;;;;5018996;28;25137;-72
2023/04/16 07:21:28;;;;;;;31.52;11.85;;;;;;;;;;5020781;28;25404;-72
2023/04/16 07:23:54;;;;;;;29.98;12.02;;;;;;;;;;5021590;28;25050;-71
2023/04/16 07:26:20;;;;;;;22.23;11.70;;;;;;;;;;5017510;28;25115;-71
2023/04/16 07:28:46;;;;;;;26.80;13.18;;;;;;;;;;5017400;28;25065;-72
2023/04/16 07:31:12;;;;;;;27.50;11.35;;;;;;;;;;5013141;28;25148;-73
2023/04/16 07:33:38;;;;;;;24.80;12.70;;;;;;;;;;5015431;28;25152;-71
2023/04/16 07:36:04;;;;;;;32.33;15.70;;;;;;;;;;5011915;28;25057;-72
2023/04/16 07:38:30;;;;;;;29.63;13.60;;;;;;;;;;5015230;28;25145;-73
2023/04/16 07:40:56;;;;;;;31.13;13.52;;;;;;;;;;5004700;28;25091;-74
2023/04/16 07:43:22;;;;;;;33.70;12.27;;;;;;;;;;5019673;28;25131;-73
2023/04/16 07:45:48;;;;;;;25.45;13.27;;;;;;;;;;5015000;28;25146;-73
2023/04/16 07:48:14;;;;;;;30.52;13.77;;;;;;;;;;5008309;28;25097;-72
2023/04/16 07:50:42;;;;;;;30.17;14.48;;;;;;;;;;5009692;28;25065;-72
2023/04/16 07:53:08;;;;;;;36.33;15.55;;;;;;;;;;5020048;28;25071;-72
2023/04/16 07:55:34;;;;;;;32.45;15.73;;;;;;;;;;5012378;28;25059;-73
2023/04/16 07:58:01;;;;;;;30.23;15.40;;;;;;;;;;5012189;28;25063;-74
2023/04/16 08:00:27;;;;;;;35.08;15.27;;;;;;;;;;5016795;28;25069;-74
2023/04/16 08:02:53;;;;;;;40.60;15.85;;;;;;;;;;5025107;28;25053;-72
2023/04/16 08:05:19;;;;;;;37.17;15.00;;;;;;;;;;5021274;28;25091;-72
2023/04/16 08:07:45;;;;;;;31.33;13.77;;;;;;;;;;5016487;28;25084;-73
2023/04/16 08:10:12;;;;;;;27.75;13.85;;;;;;;;;;5001204;28;25053;-70
2023/04/16 08:12:38;;;;;;;30.60;13.23;;;;;;;;;;5026671;28;25077;-72
2023/04/16 08:15:04;;;;;;;32.47;13.70;;;;;;;;;;4996863;28;25052;-71
2023/04/16 08:17:30;;;;;;;34.35;15.55;;;;;;;;;;5022485;28;25100;-72
2023/04/16 08:19:56;;;;;;;45.08;16.20;;;;;;;;;;5026056;28;25086;-74
2023/04/16 08:22:22;;;;;;;30.63;15.60;;;;;;;;;;5005586;28;25064;-72
2023/04/16 08:24:48;;;;;;;35.75;15.20;;;;;;;;;;5012816;28;25076;-72
2023/04/16 08:27:15;;;;;;;28.52;15.73;;;;;;;;;;5014898;28;25069;-72
2023/04/16 08:29:40;;;;;;;29.02;15.50;;;;;;;;;;5016623;28;25158;-73
2023/04/16 08:32:08;;;;;;;38.92;15.63;;;;;;;;;;5011238;28;25084;-69
2023/04/16 08:34:34;;;;;;;35.92;16.60;;;;;;;;;;4999717;28;25086;-74
2023/04/16 08:37:00;;;;;;;29.75;16.77;;;;;;;;;;5022276;28;25142;-73
2023/04/16 08:39:26;;;;;;;38.03;15.02;;;;;;;;;;5023805;28;25252;-73
2023/04/16 08:41:53;;;;;;;26.23;13.55;;;;;;;;;;5011677;28;25072;-72
2023/04/16 08:44:20;;;;;;;24.50;13.15;;;;;;;;;;5014395;28;25090;-74
2023/04/16 08:46:47;;;;;;;25.00;13.82;;;;;;;;;;5019751;28;25082;-73
2023/04/16 08:49:16;;;;;;;30.92;14.73;;;;;;;;;;5014900;28;25047;-72
2023/04/16 08:51:44;;;;;;;30.63;14.73;;;;;;;;;;5011462;28;25141;-72
2023/04/16 08:54:13;;;;;;;25.17;15.38;;;;;;;;;;5009759;28;25093;-71
2023/04/16 08:56:40;;;;;;;27.50;14.77;;;;;;;;;;5013046;28;25057;-73
2023/04/16 08:59:06;;;;;;;29.63;14.85;;;;;;;;;;5002639;28;25062;-72
2023/04/16 09:01:32;;;;;;;28.63;15.13;;;;;;;;;;4991185;28;25061;-74
2023/04/16 09:04:00;;;;;;;29.10;13.95;;;;;;;;;;5004558;28;25047;-73
2023/04/16 09:06:27;;;;;;;27.92;16.40;;;;;;;;;;5004792;28;25058;-73
2023/04/16 09:08:53;;;;;;;27.52;14.48;;;;;;;;;;5009492;28;25090;-73
2023/04/16 09:11:19;;;;;;;30.48;15.63;;;;;;;;;;5002125;28;25082;-73
2023/04/16 09:13:46;;;;;;;27.85;15.55;;;;;;;;;;4988172;28;25063;-71
2023/04/16 09:16:12;;;;;;;30.02;15.95;;;;;;;;;;5000952;28;25153;-72
2023/04/16 09:18:38;;;;;;;27.33;14.75;;;;;;;;;;5002079;28;25137;-73
2023/04/16 09:21:06;;;;;;;32.65;16.90;;;;;;;;;;4985383;28;25071;-73
2023/04/16 09:23:32;;;;;;;31.50;16.80;;;;;;;;;;4998688;28;25055;-73
2023/04/16 09:25:58;;;;;;;33.08;16.23;;;;;;;;;;5004452;28;25059;-74
2023/04/16 09:28:40;;;;;;;34.13;16.58;;;;;;;;;;5003403;28;25161;-73
2023/04/16 09:31:09;;;;;;;30.60;16.42;;;;;;;;;;4997724;28;25066;-74
2023/04/16 09:33:35;;;;;;;31.23;17.58;;;;;;;;;;5000623;28;25072;-73
2023/04/16 09:36:01;;;;;;;28.73;15.80;;;;;;;;;;5008133;28;25060;-71
2023/04/16 09:38:45;;;;;;;33.70;17.13;;;;;;;;;;5007007;28;25153;-75
2023/04/16 09:41:11;;;;;;;31.10;17.23;;;;;;;;;;5008689;28;25130;-74
2023/04/16 09:43:38;;;;;;;33.95;15.88;;;;;;;;;;5009264;28;25061;-72
2023/04/16 09:46:04;;;;;;;34.85;18.20;;;;;;;;;;5006867;28;25108;-74
2023/04/16 09:48:31;;;;;;;28.83;16.73;;;;;;;;;;5008511;28;25059;-74
2023/04/16 09:50:57;;;;;;;29.95;16.90;;;;;;;;;;5007036;28;25072;-74
2023/04/16 09:53:32;;;;;;;31.33;17.52;;;;;;;;;;5010381;28;25089;-73
2023/04/16 09:55:59;;;;;;;34.45;18.58;;;;;;;;;;4989787;28;25058;-73
2023/04/16 09:58:25;;;;;;;33.63;16.67;;;;;;;;;;5005436;28;25092;-75
2023/04/16 10:00:55;;;;;;;31.00;15.95;;;;;;;;;;5007550;28;25072;-73
2023/04/16 10:03:29;;;;;;;37.55;16.70;;;;;;;;;;5019247;28;25072;-73
2023/04/16 10:05:55;;;;;;;27.40;16.35;;;;;;;;;;4998329;28;25073;-74
2023/04/16 10:08:23;;;;;;;31.60;16.48;;;;;;;;;;5019259;28;25086;-75
2023/04/16 10:10:49;;;;;;;30.42;15.63;;;;;;;;;;5008808;28;25061;-70
2023/04/16 10:13:16;;;;;;;35.45;17.85;;;;;;;;;;5010644;28;25065;-73
2023/04/16 10:15:42;;;;;;;30.20;17.60;;;;;;;;;;5003961;28;25144;-73
2023/04/16 10:18:09;;;;;;;33.72;17.20;;;;;;;;;;4992351;28;25076;-74
2023/04/16 10:20:36;;;;;;;37.20;19.40;;;;;;;;;;5007432;28;25059;-75
2023/04/16 10:23:02;;;;;;;30.42;16.75;;;;;;;;;;5014167;28;25085;-74
2023/04/16 10:25:29;;;;;;;38.83;17.38;;;;;;;;;;5011047;28;25073;-74
2023/04/16 10:27:56;;;;;;;31.33;17.08;;;;;;;;;;5008484;28;25077;-73
2023/04/16 10:30:22;;;;;;;28.67;16.05;;;;;;;;;;4990705;28;25090;-75
2023/04/16 10:32:49;;;;;;;38.92;18.05;;;;;;;;;;5018334;28;25068;-71
2023/04/16 10:35:19;;;;;;;32.20;16.98;;;;;;;;;;5007575;28;25106;-73
2023/04/16 10:37:46;;;;;;;40.30;20.73;;;;;;;;;;5009412;28;25142;-75
2023/04/16 10:40:25;;;;;;;32.35;16.83;;;;;;;;;;4977549;28;25137;-71
2023/04/16 10:43:00;;;;;;;30.83;16.20;;;;;;;;;;4997321;28;25091;-74
2023/04/16 10:45:31;;;;;;;26.90;16.42;;;;;;;;;;4998372;28;25117;-75
2023/04/16 10:47:57;;;;;;;25.48;16.13;;;;;;;;;;5003067;28;25061;-74
2023/04/16 10:50:23;;;;;;;31.63;15.57;;;;;;;;;;5002736;28;25088;-76
2023/04/16 10:53:11;;;;;;;26.10;16.27;;;;;;;;;;5014408;28;25061;-73
2023/04/16 10:55:40;;;;;;;28.33;16.10;;;;;;;;;;5016685;28;25179;-73
2023/04/16 10:58:25;;;;;;;30.42;15.88;;;;;;;;;;5014733;28;25113;-75
2023/04/16 11:00:51;;;;;;;27.80;15.85;;;;;;;;;;5008105;28;25057;-74
2023/04/16 11:03:17;;;;;;;33.20;16.48;;;;;;;;;;5007653;28;25156;-75
2023/04/16 11:05:46;;;;;;;36.35;16.52;;;;;;;;;;5010956;28;25062;-76
2023/04/16 11:08:15;;;;;;;38.08;17.92;;;;;;;;;;5004228;28;25051;-76
2023/04/16 11:10:42;;;;;;;37.45;17.40;;;;;;;;;;4999410;28;25083;-72
2023/04/16 11:13:08;;;;;;;31.10;17.58;;;;;;;;;;5000228;28;25052;-73
2023/04/16 11:15:34;;;;;;;33.53;16.38;;;;;;;;;;5002032;28;25049;-72
2023/04/16 11:18:02;;;;;;;30.38;16.58;;;;;;;;;;4997102;28;25052;-72
2023/04/16 11:20:28;;;;;;;34.20;17.77;;;;;;;;;;5003683;28;25048;-74
2023/04/16 11:22:55;;;;;;;37.35;16.75;;;;;;;;;;4997430;28;25051;-76
2023/04/16 11:25:22;;;;;;;43.72;17.23;;;;;;;;;;5004204;28;25090;-71
2023/04/16 11:27:48;;;;;;;40.40;18.45;;;;;;;;;;5002783;28;25113;-75
2023/04/16 11:30:14;;;;;;;38.58;18.23;;;;;;;;;;5003403;28;25063;-74
2023/04/16 11:32:41;;;;;;;37.63;17.90;;;;;;;;;;4995735;28;25066;-74
2023/04/16 11:35:14;;;;;;;49.83;19.58;;;;;;;;;;4994925;28;25083;-73
2023/04/16 11:37:41;;;;;;;37.83;17.90;;;;;;;;;;4992038;28;25088;-73
2023/04/16 11:40:11;;;;;;;33.78;16.75;;;;;;;;;;4986465;28;25168;-72
2023/04/16 11:42:39;;;;;;;31.05;17.10;;;;;;;;;;5001100;28;25135;-75
2023/04/16 11:45:06;;;;;;;44.83;19.77;;;;;;;;;;5002376;28;25070;-73
2023/04/16 11:47:41;;;;;;;38.28;19.58;;;;;;;;;;5012456;28;25062;-73
2023/04/16 11:50:24;;;;;;;40.58;17.33;;;;;;;;;;4996368;28;25078;-74
2023/04/16 11:52:50;;;;;;;31.45;16.92;;;;;;;;;;4997491;28;25069;-73
2023/04/16 11:55:17;;;;;;;39.65;18.20;;;;;;;;;;4986150;28;25071;-73
2023/04/16 11:57:44;;;;;;;41.65;18.98;;;;;;;;;;5021045;28;25064;-76
2023/04/16 12:00:12;;;;;;;35.40;19.30;;;;;;;;;;5021234;28;25128;-74
2023/04/16 12:02:52;;;;;;;35.47;18.98;;;;;;;;;;4998325;28;25080;-74
2023/04/16 12:05:29;;;;;;;32.85;16.00;;;;;;;;;;5019151;28;25146;-73
2023/04/16 12:07:56;;;;;;;32.35;16.00;;;;;;;;;;5017210;28;25099;-78
2023/04/16 12:10:22;;;;;;;31.92;15.10;;;;;;;;;;5022539;28;25089;-76
2023/04/16 12:12:48;;;;;;;26.35;14.55;;;;;;;;;;5030504;28;25056;-74
2023/04/16 12:15:14;;;;;;;28.50;14.07;;;;;;;;;;5019263;28;25160;-76
2023/04/16 12:17:40;;;;;;;31.30;14.32;;;;;;;;;;5012715;28;25058;-73
2023/04/16 12:20:10;;;;;;;35.10;14.02;;;;;;;;;;5020042;28;25073;-75
2023/04/16 12:22:37;;;;;;;36.70;13.98;;;;;;;;;;5020099;28;25085;-74
2023/04/16 12:25:07;;;;;;;34.30;14.95;;;;;;;;;;5002570;28;25102;-76
2023/04/16 12:27:45;;;;;;;35.60;16.42;;;;;;;;;;4996807;28;25161;-73
2023/04/16 12:30:11;;;;;;;31.30;14.82;;;;;;;;;;5019716;28;25086;-75
2023/04/16 12:32:37;;;;;;;27.58;14.43;;;;;;;;;;5019604;28;25097;-73
2023/04/16 12:35:04;;;;;;;34.35;14.68;;;;;;;;;;5017887;28;25106;-75
2023/04/16 12:37:30;;;;;;;25.05;13.68;;;;;;;;;;5018611;28;25158;-73
2023/04/16 12:39:56;;;;;;;33.00;15.50;;;;;;;;;;5019230;28;25117;-73
2023/04/16 12:42:23;;;;;;;31.35;15.23;;;;;;;;;;5004274;28;25000;-73
2023/04/16 12:44:49;;;;;;;30.65;14.30;;;;;;;;;;5024971;28;25063;-74
2023/04/16 12:47:15;;;;;;;31.05;14.60;;;;;;;;;;5017642;28;25075;-72
2023/04/16 12:49:41;;;;;;;27.70;13.93;;;;;;;;;;5019767;28;25136;-73
2023/04/16 12:52:07;;;;;;;36.63;17.95;;;;;;;;;;5019284;28;25080;-73
2023/04/16 12:54:33;;;;;;;33.35;16.02;;;;;;;;;;5024379;28;25067;-73
2023/04/16 12:56:59;;;;;;;27.85;14.60;;;;;;;;;;5010214;28;25085;-74
2023/04/16 12:59:25;;;;;;;30.02;15.00;;;;;;;;;;5021360;28;25090;-74
2023/04/16 13:01:51;;;;;;;33.42;14.02;;;;;;;;;;5017659;28;25051;-73
2023/04/16 13:04:20;;;;;;;28.70;14.57;;;;;;;;;;5020487;28;25060;-73
2023/04/16 13:06:46;;;;;;;26.83;15.27;;;;;;;;;;5015663;28;25051;-74
2023/04/16 13:09:12;;;;;;;30.92;17.50;;;;;;;;;;5011293;28;25105;-74
2023/04/16 13:11:38;;;;;;;32.08;16.13;;;;;;;;;;5002661;28;25130;-73
2023/04/16 13:14:04;;;;;;;33.05;15.02;;;;;;;;;;5007938;28;25091;-73
2023/04/16 13:16:30;;;;;;;27.45;14.88;;;;;;;;;;5001763;28;25084;-74
2023/04/16 13:18:56;;;;;;;30.33;15.57;;;;;;;;;;4999093;28;25083;-72
2023/04/16 13:21:22;;;;;;;31.23;15.15;;;;;;;;;;5002948;28;25053;-74
2023/04/16 13:23:48;;;;;;;34.67;16.52;;;;;;;;;;5000728;28;25072;-72
2023/04/16 13:26:15;;;;;;;31.20;14.30;;;;;;;;;;5005603;28;25061;-72
2023/04/16 13:28:41;;;;;;;31.58;15.00;;;;;;;;;;4999221;28;25134;-70
2023/04/16 13:31:06;;;;;;;29.17;13.88;;;;;;;;;;5005186;28;25131;-71
2023/04/16 13:33:32;;;;;;;28.05;14.68;;;;;;;;;;4996609;28;25153;-72
2023/04/16 13:35:58;;;;;;;36.80;14.82;;;;;;;;;;5002818;28;25168;-70
2023/04/16 13:38:24;;;;;;;32.58;14.07;;;;;;;;;;5007701;28;25061;-74
2023/04/16 13:40:50;;;;;;;32.92;13.45;;;;;;;;;;5007713;28;25109;-75
2023/04/16 13:43:17;;;;;;;30.25;15.88;;;;;;;;;;5002509;28;25098;-73
2023/04/16 13:45:44;;;;;;;31.20;14.40;;;;;;;;;;5008911;28;25101;-73
2023/04/16 13:48:10;;;;;;;28.05;15.30;;;;;;;;;;5016621;28;25132;-72
2023/04/16 13:50:36;;;;;;;26.13;13.52;;;;;;;;;;5021726;28;25065;-74
2023/04/16 13:53:02;;;;;;;29.73;13.50;;;;;;;;;;5008724;28;25083;-76
2023/04/16 13:55:29;;;;;;;29.02;13.18;;;;;;;;;;4999381;28;25106;-73
2023/04/16 13:57:55;;;;;;;29.90;13.93;;;;;;;;;;5010279;28;25047;-72
2023/04/16 14:00:22;;;;;;;40.17;15.73;;;;;;;;;;5005466;28;25195;-73
2023/04/16 14:02:48;;;;;;;34.13;15.70;;;;;;;;;;5009869;28;25336;-72
2023/04/16 14:05:14;;;;;;;33.45;13.45;;;;;;;;;;5006852;28;25168;-73
2023/04/16 14:07:40;;;;;;;30.73;13.88;;;;;;;;;;4989207;28;25063;-71
2023/04/16 14:10:07;;;;;;;31.98;14.13;;;;;;;;;;5002064;28;25146;-73
2023/04/16 14:12:32;;;;;;;30.20;13.63;;;;;;;;;;5008590;28;25085;-74
2023/04/16 14:14:59;;;;;;;32.92;13.70;;;;;;;;;;5005860;28;25069;-74
2023/04/16 14:17:24;;;;;;;30.67;13.43;;;;;;;;;;5010162;28;25054;-72
2023/04/16 14:19:50;;;;;;;27.70;13.15;;;;;;;;;;5008610;28;25139;-72